Time;durP1;ratioP1;P1;durP2;ratioP2;P2;SDS_P1;SDS_P2;PMS_P1;PMS_P2;Temp;Humidity;BMP_temperature;BMP_pressure;BME280_temperature;BME280_humidity;BME280_pressure;Samples;Min_cycle;Max_cycle;Signal;HPM_P1;HPM_P2
2024/04/17 00:09:35;;;;;;;;;;;;;;;;;;;;;
2024/04/17 00:19:36;;;;;;;;;;;;;;;;;;;;;
2024/04/17 00:22:55;;;;;;;1.60;0.70;;;;;;;9.18;63.48;94216.84;6276945;22;20168;-85
2024/04/17 00:32:49;;;;;;;;;;;;;;;;;;;;;
2024/04/17 00:59:57;;;;;;;0.70;0.70;;;;;;;8.99;65.16;94256.97;6217730;22;20165;-86
2024/04/17 01:19:23;;;;;;;0.70;0.70;;;;;;;8.87;65.55;94252.63;6131005;23;20699;-85
2024/04/17 01:22:27;;;;;;;0.80;0.80;;;;;;;9.02;65.18;94252.44;6153605;23;20234;-87
2024/04/17 01:38:50;;;;;;;;;;;;;;;;;;;;;
2024/04/17 01:41:33;;;;;;;0.90;0.90;;;;;;;8.90;65.49;94236.84;6248101;23;20516;-85
2024/04/17 01:44:34;;;;;;;1.90;0.90;;;;;;;9.05;64.93;94234.84;6247005;23;20215;-86
2024/04/17 01:47:55;;;;;;;1.00;0.90;;;;;;;8.96;65.69;94254.00;6247401;23;20183;-87
2024/04/17 01:50:46;;;;;;;0.80;0.80;;;;;;;8.95;65.41;94248.09;6242568;23;20184;-87
2024/04/17 01:53:27;;;;;;;1.00;0.90;;;;;;;9.08;65.18;94249.84;6245513;23;20203;-86
2024/04/17 02:20:58;;;;;;;;;;;;;;;;;;;;;
2024/04/17 02:30:22;;;;;;;0.90;0.90;;;;;;;8.91;67.56;94339.31;6183805;23;20245;-87
2024/04/17 02:32:54;;;;;;;1.10;1.00;;;;;;;8.90;68.17;94362.59;6124277;23;20182;-87
2024/04/17 02:39:18;;;;;;;1.03;1.03;;;;;;;8.95;70.83;94443.16;6226577;22;20746;-86
2024/04/17 02:41:44;;;;;;;0.77;0.77;;;;;;;8.92;72.16;94479.47;6280151;22;20257;-87
2024/04/17 02:50:26;;;;;;;0.87;0.87;;;;;;;8.81;74.83;94536.50;6231360;22;20176;-87
2024/04/17 02:53:29;;;;;;;0.87;0.87;;;;;;;8.73;75.85;94567.47;6279074;22;20168;-86
2024/04/17 02:56:31;;;;;;;1.13;0.80;;;;;;;8.56;76.79;94586.72;6278608;22;20625;-88
2024/04/17 03:03:33;;;;;;;0.80;0.80;;;;;;;8.24;76.96;94590.63;6263299;22;20171;-88
2024/04/17 03:08:11;;;;;;;1.10;1.00;;;;;;;7.85;80.30;94652.59;6262850;22;20740;-85
2024/04/17 03:11:06;;;;;;;1.20;0.77;;;;;;;7.79;79.92;94648.97;6219531;22;20168;-86
2024/04/17 03:17:54;;;;;;;0.83;0.83;;;;;;;7.71;82.02;94699.53;6259433;22;20183;-85
2024/04/17 03:20:55;;;;;;;0.63;0.63;;;;;;;7.73;81.77;94693.25;6150773;23;20211;-86
2024/04/17 03:26:58;;;;;;;0.73;0.73;;;;;;;7.72;81.40;94698.56;6027567;23;20295;-85
2024/04/17 03:30:01;;;;;;;0.93;0.80;;;;;;;7.76;81.23;94694.66;6187979;22;20241;-86
2024/04/17 03:35:33;;;;;;;3.90;1.00;;;;;;;7.70;82.40;94713.34;6180737;23;20185;-86
2024/04/17 03:41:51;;;;;;;1.10;1.00;;;;;;;7.67;82.65;94713.69;6242613;23;20173;-86
2024/04/17 03:45:22;;;;;;;0.97;0.90;;;;;;;7.48;83.11;94727.84;6248204;23;20215;-87
2024/04/17 03:48:36;;;;;;;1.10;1.00;;;;;;;7.34;84.78;94756.78;6125830;23;20250;-89
2024/04/17 03:51:15;;;;;;;1.00;1.00;;;;;;;7.41;84.68;94760.25;6127266;23;20175;-88
2024/04/17 03:59:35;;;;;;;0.87;0.87;;;;;;;7.49;84.12;94750.72;5998668;23;20181;-87
2024/04/17 04:02:59;;;;;;;1.00;0.90;;;;;;;7.45;83.54;94746.94;6229311;23;20234;-86
2024/04/17 04:05:53;;;;;;;1.90;0.90;;;;;;;7.46;83.85;94760.53;6155168;23;20560;-85
2024/04/17 04:08:36;;;;;;;1.83;0.93;;;;;;;7.36;83.84;94750.53;6156848;23;20186;-87
2024/04/17 04:21:21;;;;;;;1.60;1.40;;;;;;;7.00;83.82;94762.44;6178496;23;20168;-86
2024/04/17 04:23:51;;;;;;;1.40;1.30;;;;;;;6.90;83.30;94740.47;6249294;23;20237;-86
2024/04/17 04:29:08;;;;;;;1.20;1.17;;;;;;;6.82;83.72;94765.31;6182624;22;20259;-88
2024/04/17 04:31:47;;;;;;;1.20;1.10;;;;;;;6.72;83.56;94764.78;6250247;23;20176;-88
2024/04/17 04:34:16;;;;;;;1.90;1.50;;;;;;;6.69;83.53;94762.56;6249156;23;20241;-87
2024/04/17 04:36:49;;;;;;;1.27;1.20;;;;;;;6.64;83.27;94757.94;6249902;23;20255;-87
2024/04/17 04:39:21;;;;;;;2.00;1.80;;;;;;;6.62;84.03;94780.34;6249023;22;20165;-88
2024/04/17 04:41:46;;;;;;;1.70;1.60;;;;;;;6.74;82.50;94763.59;6249946;23;20169;-87
2024/04/17 04:44:18;;;;;;;1.50;1.40;;;;;;;6.80;80.90;94722.00;6248205;23;20204;-87
2024/04/17 04:46:46;;;;;;;1.10;1.10;;;;;;;6.84;79.02;94687.44;6248986;23;20731;-88
2024/04/17 04:56:41;;;;;;;1.20;1.10;;;;;;;6.90;76.86;94635.56;6248522;23;20314;-88
2024/04/17 04:59:17;;;;;;;0.87;0.87;;;;;;;6.86;77.40;94639.44;6107885;22;20184;-86
2024/04/17 05:01:52;;;;;;;1.10;1.00;;;;;;;6.91;75.88;94608.22;6249028;23;20172;-85
2024/04/17 05:04:17;;;;;;;1.00;0.90;;;;;;;6.93;75.23;94594.25;6247517;23;20200;-86
2024/04/17 05:07:12;;;;;;;1.40;1.30;;;;;;;6.85;75.61;94607.16;6248011;23;20176;-85
2024/04/17 05:12:52;;;;;;;1.17;1.13;;;;;;;6.78;75.34;94602.91;6246475;22;20171;-87
2024/04/17 05:15:21;;;;;;;1.63;1.40;;;;;;;6.64;76.31;94612.19;6249028;23;20212;-87
2024/04/17 05:17:57;;;;;;;3.53;1.27;;;;;;;6.59;77.24;94653.63;6248664;22;20177;-88
2024/04/17 05:20:57;;;;;;;2.77;1.10;;;;;;;6.57;76.91;94654.75;6249524;23;20817;-87
2024/04/17 05:24:05;;;;;;;1.10;1.00;;;;;;;6.66;78.15;94679.28;6248146;23;20165;-86
2024/04/17 05:26:40;;;;;;;14.37;11.43;;;;;;;6.74;77.82;94691.97;6249193;23;20195;-89
2024/04/17 05:29:21;;;;;;;8.00;3.93;;;;;;;6.64;81.72;94772.50;6250812;23;20235;-88
2024/04/17 05:32:10;;;;;;;3.30;2.20;;;;;;;6.77;79.09;94724.91;6251208;23;20173;-88
2024/04/17 05:34:52;;;;;;;5.87;1.57;;;;;;;6.96;77.51;94684.41;6250835;23;20192;-87
2024/04/17 05:37:30;;;;;;;;;;;;;;;;;;;;;
2024/04/17 05:43:04;;;;;;;1.47;1.10;;;;;;;6.86;74.86;94613.06;6238743;23;20181;-87
2024/04/17 05:49:06;;;;;;;1.20;1.10;;;;;;;6.73;76.10;94649.50;6246299;23;20659;-88
2024/04/17 05:51:33;;;;;;;1.03;0.93;;;;;;;6.79;76.10;94653.91;6250215;23;20176;-87
2024/04/17 05:54:32;;;;;;;1.20;1.10;;;;;;;6.87;76.36;94665.81;6249112;23;20177;-86
2024/04/17 05:57:22;;;;;;;1.53;1.43;;;;;;;6.90;76.51;94676.50;6231571;23;20177;-85
2024/04/17 05:59:55;;;;;;;1.57;1.30;;;;;;;6.90;76.22;94665.47;6247213;23;20184;-87
2024/04/17 06:02:31;;;;;;;1.80;1.70;;;;;;;6.94;76.27;94672.59;6247465;23;20200;-87
2024/04/17 06:05:02;;;;;;;1.70;1.60;;;;;;;6.93;76.06;94655.66;6248420;23;20193;-87
2024/04/17 06:07:27;;;;;;;1.60;1.50;;;;;;;6.92;76.02;94664.31;6248821;23;20161;-86
2024/04/17 06:10:03;;;;;;;1.40;1.30;;;;;;;6.89;76.19;94667.22;6248554;23;20772;-87
2024/04/17 06:12:38;;;;;;;1.50;1.40;;;;;;;6.96;77.08;94702.34;6248638;23;20164;-88
2024/04/17 06:15:37;;;;;;;1.63;1.50;;;;;;;7.00;77.42;94695.91;6248543;23;20266;-87
2024/04/17 06:18:10;;;;;;;1.50;1.40;;;;;;;7.01;77.26;94708.53;6245959;23;20204;-85
2024/04/17 06:20:43;;;;;;;1.50;1.40;;;;;;;7.04;76.96;94700.50;6246340;23;20215;-88
2024/04/17 06:23:28;;;;;;;1.50;1.40;;;;;;;7.09;77.02;94702.53;6242816;23;20173;-89
2024/04/17 06:25:55;;;;;;;4.13;3.07;;;;;;;7.15;77.43;94717.16;6239355;23;20200;-86
2024/04/17 06:28:31;;;;;;;2.73;2.30;;;;;;;7.17;76.94;94708.34;6245216;23;20656;-87
2024/04/17 06:31:00;;;;;;;2.67;1.80;;;;;;;7.23;77.11;94709.41;6245783;23;20172;-88
2024/04/17 06:33:28;;;;;;;1.50;1.40;;;;;;;7.16;78.90;94755.38;6245575;23;20188;-87
2024/04/17 06:35:54;;;;;;;1.30;1.20;;;;;;;7.15;78.73;94761.47;6245250;23;20189;-87
2024/04/17 06:39:05;;;;;;;1.40;1.30;;;;;;;7.22;79.90;94784.63;6246486;23;20694;-87
2024/04/17 06:41:42;;;;;;;1.30;1.20;;;;;;;7.14;81.73;94812.84;6248254;22;20187;-86
2024/04/17 06:44:33;;;;;;;1.50;1.40;;;;;;;7.28;80.62;94802.63;6242602;23;20251;-87
2024/04/17 06:47:05;;;;;;;1.60;1.30;;;;;;;7.44;80.37;94798.31;6246103;23;20153;-86
2024/04/17 06:49:39;;;;;;;2.07;1.93;;;;;;;7.46;81.25;94814.31;6248076;23;20620;-89
2024/04/17 06:52:05;;;;;;;1.60;1.50;;;;;;;7.43;82.29;94830.81;6246252;23;20187;-87
2024/04/17 06:54:37;;;;;;;2.57;1.70;;;;;;;7.54;81.19;94809.88;6247850;23;20193;-88
2024/04/17 06:57:13;;;;;;;2.77;1.30;;;;;;;7.55;80.43;94793.53;6248138;23;20735;-90
2024/04/17 06:59:50;;;;;;;1.43;1.33;;;;;;;7.51;81.18;94812.00;6247896;23;20508;-87
2024/04/17 07:02:19;;;;;;;1.67;1.20;;;;;;;7.53;82.11;94828.78;6247131;23;20172;-86
2024/04/17 07:04:53;;;;;;;1.30;1.20;;;;;;;7.54;81.08;94806.50;6249512;23;20216;-86
2024/04/17 07:07:30;;;;;;;1.40;1.30;;;;;;;7.60;80.99;94813.50;6247428;23;20161;-87
2024/04/17 07:09:57;;;;;;;1.30;1.20;;;;;;;7.66;82.41;94847.88;6248949;23;20196;-87
2024/04/17 07:12:33;;;;;;;1.03;1.03;;;;;;;7.72;81.78;94835.13;6249323;23;20255;-88
2024/04/17 07:15:10;;;;;;;1.10;1.10;;;;;;;7.81;81.52;94818.72;6248452;23;20192;-87
2024/04/17 07:17:51;;;;;;;1.00;1.00;;;;;;;7.86;80.31;94800.25;6247468;23;20188;-86
2024/04/17 07:20:34;;;;;;;0.93;0.93;;;;;;;7.87;80.50;94805.19;6246166;23;20243;-88
2024/04/17 07:23:01;;;;;;;1.07;1.07;;;;;;;7.68;83.11;94856.97;6246254;23;20232;-86
2024/04/17 07:34:20;;;;;;;2.50;2.30;;;;;;;8.12;82.88;94862.06;6231997;23;20193;-87
2024/04/17 07:37:00;;;;;;;1.23;1.20;;;;;;;8.07;81.27;94820.00;6246748;22;20172;-88
2024/04/17 07:39:32;;;;;;;1.37;1.27;;;;;;;8.11;80.42;94798.16;6248275;23;20161;-86
2024/04/17 07:42:12;;;;;;;1.60;1.50;;;;;;;8.06;82.80;94849.97;6247949;23;20165;-87
2024/04/17 07:44:59;;;;;;;1.43;1.33;;;;;;;8.07;81.25;94822.56;6247426;23;20248;-87
2024/04/17 07:47:38;;;;;;;1.20;1.20;;;;;;;8.14;80.09;94784.97;6246594;22;20172;-87
2024/04/17 07:50:25;;;;;;;1.07;1.07;;;;;;;8.21;80.21;94796.09;6247365;23;20244;-86
2024/04/17 07:52:55;;;;;;;1.53;1.43;;;;;;;8.26;81.69;94834.81;6247998;23;20270;-90
2024/04/17 07:55:38;;;;;;;1.40;1.30;;;;;;;8.28;82.61;94851.59;6247188;23;20548;-86
2024/04/17 07:58:13;;;;;;;1.00;1.00;;;;;;;8.38;82.13;94838.53;6246107;23;20157;-88
2024/04/17 08:01:21;;;;;;;1.30;1.20;;;;;;;8.41;81.77;94830.47;6246352;23;20176;-87
2024/04/17 08:07:06;;;;;;;2.30;2.10;;;;;;;8.33;83.36;94861.34;6196744;22;20211;-88
2024/04/17 08:09:39;;;;;;;1.40;1.30;;;;;;;8.33;82.05;94830.56;6247645;23;20549;-87
2024/04/17 08:12:52;;;;;;;1.10;1.10;;;;;;;8.37;80.77;94808.72;6247167;23;20169;-86
2024/04/17 08:15:21;;;;;;;1.37;1.27;;;;;;;8.40;80.42;94810.13;6221531;23;20207;-87
2024/04/17 08:18:16;;;;;;;1.10;1.10;;;;;;;8.37;81.93;94841.28;6244526;23;20169;-87
2024/04/17 08:21:04;;;;;;;10.57;9.27;;;;;;;8.26;83.30;94865.59;6245109;23;20623;-88
2024/04/17 08:23:58;;;;;;;3.10;2.80;;;;;;;8.27;84.12;94880.00;6242872;23;20177;-88
2024/04/17 08:26:41;;;;;;;1.03;1.03;;;;;;;8.28;84.01;94881.56;6243523;22;20200;-87
2024/04/17 08:29:12;;;;;;;0.90;0.90;;;;;;;8.38;82.43;94846.22;6246949;23;20216;-86
2024/04/17 08:31:50;;;;;;;1.10;0.93;;;;;;;8.40;83.11;94864.78;6246257;23;20180;-87
2024/04/17 08:35:10;;;;;;;;;;;;;;;;;;;;;
2024/04/17 08:37:49;;;;;;;1.20;1.10;;;;;;;8.50;83.49;94867.06;6229344;23;20211;-90
2024/04/17 08:40:40;;;;;;;;;;;;;;;;;;;;;
2024/04/17 08:43:23;;;;;;;1.37;1.27;;;;;;;8.44;83.55;94881.44;6130290;23;20233;-87
2024/04/17 08:49:43;;;;;;;1.50;1.40;;;;;;;8.45;84.53;94900.97;6194639;23;20183;-87
2024/04/17 08:52:36;;;;;;;1.30;1.20;;;;;;;8.51;82.21;94858.38;6245620;23;20173;-88
2024/04/17 09:01:46;;;;;;;1.40;1.30;;;;;;;8.74;82.02;94847.97;6243870;22;20760;-88
2024/04/17 09:16:54;;;;;;;13.60;12.03;;;;;;;9.46;84.23;94914.56;6243722;23;20177;-87
2024/04/17 09:19:23;;;;;;;6.13;5.53;;;;;;;9.58;84.44;94913.09;6247838;23;20164;-88
2024/04/17 09:22:18;;;;;;;2.37;2.17;;;;;;;9.68;80.24;94824.38;6246925;22;20173;-86
2024/04/17 09:25:16;;;;;;;2.10;2.00;;;;;;;9.65;79.15;94793.13;6246787;23;20740;-86
2024/04/17 09:31:03;;;;;;;2.67;2.00;;;;;;;9.67;79.53;94804.81;6242715;22;20173;-89
2024/04/17 09:33:51;;;;;;;2.13;2.00;;;;;;;9.74;80.49;94832.31;6246525;22;20172;-87
2024/04/17 09:36:34;;;;;;;2.70;2.50;;;;;;;9.75;83.40;94893.03;6246371;23;20172;-87
2024/04/17 09:39:21;;;;;;;2.70;2.50;;;;;;;9.74;76.42;94738.00;6246971;23;20184;-89
2024/04/17 09:42:00;;;;;;;3.40;2.83;;;;;;;9.89;75.37;94689.00;6246916;23;20157;-86
2024/04/17 09:44:56;;;;;;;2.97;2.77;;;;;;;10.29;74.51;94662.41;6246237;23;20242;-87
2024/04/17 09:50:28;;;;;;;2.80;2.60;;;;;;;10.21;72.79;94616.28;6247989;23;20200;-86
2024/04/17 09:53:31;;;;;;;2.90;2.70;;;;;;;9.99;75.29;94690.25;6247273;23;20179;-89
2024/04/17 09:56:17;;;;;;;;;;;;;;;;;;;;;
2024/04/17 09:58:50;;;;;;;2.37;2.17;;;;;;;10.70;71.51;94579.03;6247269;23;20205;-86
2024/04/17 10:01:23;;;;;;;2.30;2.20;;;;;;;11.18;69.85;94534.88;6245907;23;20161;-87
2024/04/17 10:04:07;;;;;;;2.20;2.10;;;;;;;11.37;70.26;94537.34;6247017;23;20702;-87
2024/04/17 10:06:42;;;;;;;2.70;2.50;;;;;;;11.56;70.97;94569.16;6245395;23;20255;-86
2024/04/17 10:09:44;;;;;;;2.80;2.60;;;;;;;11.75;65.86;94385.19;6247943;23;20175;-87
2024/04/17 10:12:13;;;;;;;2.70;2.50;;;;;;;11.98;63.38;94249.69;6248113;23;20172;-87
2024/04/17 10:25:26;;;;;;;3.27;2.97;;;;;;;12.57;61.59;94193.88;6152557;23;20198;-88
2024/04/17 10:28:23;;;;;;;42.10;37.40;;;;;;;12.39;62.71;94241.19;6155066;23;20566;-87
2024/04/17 10:31:09;;;;;;;8.17;7.37;;;;;;;12.39;61.68;94156.03;6187739;23;20200;-88
2024/04/17 10:34:42;;;;;;;3.80;3.40;;;;;;;11.98;61.09;94125.88;6248835;22;20173;-87
2024/04/17 10:37:18;;;;;;;3.07;2.87;;;;;;;11.74;64.68;94283.03;6186539;22;20196;-88
2024/04/17 10:51:22;;;;;;;11.37;10.20;;;;;;;11.34;66.17;94360.00;6219135;23;20179;-86
2024/04/17 10:54:04;;;;;;;6.20;5.60;;;;;;;11.10;64.39;94272.41;6219641;23;20224;-88
2024/04/17 10:56:59;;;;;;;2.40;2.30;;;;;;;10.84;63.19;94217.53;6190197;23;20241;-87
2024/04/17 10:59:36;;;;;;;3.60;3.30;;;;;;;10.72;64.80;94281.03;6190343;23;20177;-88
2024/04/17 11:02:23;;;;;;;2.93;2.30;;;;;;;10.72;65.03;94283.59;6190177;23;20169;-86
2024/04/17 11:07:45;;;;;;;2.30;2.20;;;;;;;10.64;64.37;94260.69;6184947;23;20221;-87
2024/04/17 11:10:38;;;;;;;2.47;2.27;;;;;;;10.73;64.27;94278.25;6189112;23;20173;-86
2024/04/17 11:13:28;;;;;;;2.70;2.50;;;;;;;10.94;64.76;94286.59;6190178;23;20542;-86
2024/04/17 11:15:57;;;;;;;3.00;2.40;;;;;;;11.07;64.42;94276.97;6188521;23;20190;-89
2024/04/17 11:18:34;;;;;;;3.13;2.60;;;;;;;11.02;66.42;94364.38;6189199;23;20189;-87
2024/04/17 11:21:09;;;;;;;2.80;2.50;;;;;;;11.07;64.92;94309.66;6188555;23;20201;-88
2024/04/17 11:24:18;;;;;;;2.83;2.53;;;;;;;11.02;65.84;94335.25;6189327;23;20169;-86
2024/04/17 11:26:59;;;;;;;2.60;2.40;;;;;;;11.21;66.71;94365.22;6188810;23;20225;-85
2024/04/17 11:29:29;;;;;;;2.40;2.30;;;;;;;11.33;62.44;94185.00;6188007;23;20208;-85
2024/04/17 11:32:02;;;;;;;2.40;2.30;;;;;;;11.36;62.49;94163.91;6188987;23;20170;-87
2024/04/17 11:34:32;;;;;;;2.33;2.13;;;;;;;11.63;64.01;94252.03;6188575;23;20194;-87
2024/04/17 11:37:06;;;;;;;2.50;2.30;;;;;;;11.87;63.87;94242.69;6188155;23;20166;-88
2024/04/17 11:39:42;;;;;;;9.23;8.33;;;;;;;12.00;60.47;94100.66;6189177;23;20609;-86
2024/04/17 11:42:38;;;;;;;3.70;3.40;;;;;;;12.16;60.04;94038.09;6190021;23;20492;-87
2024/04/17 11:45:14;;;;;;;2.30;2.10;;;;;;;11.91;57.94;93936.94;6189294;23;20213;-86
2024/04/17 11:47:49;;;;;;;2.00;1.80;;;;;;;11.80;57.93;93929.97;6188685;23;20186;-87
2024/04/17 11:50:17;;;;;;;2.00;1.90;;;;;;;11.58;59.20;93991.56;6188533;23;20188;-86
2024/04/17 11:52:44;;;;;;;1.97;1.87;;;;;;;11.23;60.34;94037.84;6187924;23;20175;-86
2024/04/17 11:55:30;;;;;;;2.77;2.23;;;;;;;10.80;63.56;94210.44;6188591;23;20202;-87
2024/04/17 11:58:09;;;;;;;2.37;2.17;;;;;;;10.67;64.92;94276.50;6178386;23;20435;-86
2024/04/17 12:00:35;;;;;;;2.60;2.40;;;;;;;10.80;66.25;94354.63;6189058;23;20638;-87
2024/04/17 12:03:01;;;;;;;2.73;2.53;;;;;;;11.29;64.60;94295.41;6188336;23;20184;-87
2024/04/17 12:05:33;;;;;;;2.23;2.13;;;;;;;11.81;65.32;94341.53;6188177;23;20194;-88
2024/04/17 12:10:55;;;;;;;2.53;2.33;;;;;;;12.36;58.71;94030.00;6172594;23;20177;-87
2024/04/17 12:13:22;;;;;;;2.10;2.00;;;;;;;12.56;59.98;94074.31;6186525;23;20178;-87
2024/04/17 12:15:52;;;;;;;2.50;2.30;;;;;;;12.85;59.44;94072.63;6187602;23;20194;-86
2024/04/17 12:18:20;;;;;;;2.50;2.23;;;;;;;12.66;58.50;94006.63;6188036;23;20178;-88
2024/04/17 12:20:48;;;;;;;2.40;2.20;;;;;;;12.32;57.55;93930.81;6187133;23;20185;-86
2024/04/17 12:23:31;;;;;;;;;;;;;;;;;;;;;
2024/04/17 12:29:01;;;;;;;2.90;2.70;;;;;;;10.99;62.75;94209.47;6186810;23;20301;-86
2024/04/17 12:31:34;;;;;;;2.90;2.70;;;;;;;10.58;63.92;94256.38;6187355;23;20178;-86
2024/04/17 12:34:01;;;;;;;5.63;5.10;;;;;;;10.43;65.14;94322.75;6187744;23;20174;-86
2024/04/17 12:36:33;;;;;;;3.80;3.50;;;;;;;10.39;65.93;94363.56;6186278;23;20174;-87
2024/04/17 12:39:02;;;;;;;2.80;2.60;;;;;;;9.93;69.06;94466.53;6186012;23;20254;-87
2024/04/17 12:41:31;;;;;;;2.53;2.33;;;;;;;9.70;70.74;94533.75;6187100;23;20245;-86
2024/04/17 12:44:01;;;;;;;2.50;2.30;;;;;;;9.51;74.15;94645.00;6187519;23;20178;-86
2024/04/17 12:46:37;;;;;;;2.83;2.50;;;;;;;9.48;74.66;94668.50;6186567;23;20188;-86
2024/04/17 12:49:05;;;;;;;3.30;2.03;;;;;;;9.34;74.78;94673.59;6187699;23;20184;-86
2024/04/17 12:52:14;;;;;;;2.17;2.03;;;;;;;9.29;72.87;94613.50;6188793;23;20159;-87
2024/04/17 12:58:08;;;;;;;2.00;1.90;;;;;;;9.00;74.84;94683.91;6188393;23;20174;-86
2024/04/17 13:00:42;;;;;;;1.90;1.80;;;;;;;8.88;75.64;94709.28;6156197;23;20693;-87
2024/04/17 13:06:42;;;;;;;1.73;1.63;;;;;;;8.60;78.96;94781.13;6179157;23;20225;-86
2024/04/17 13:09:08;;;;;;;2.37;1.90;;;;;;;8.30;80.39;94795.00;6191389;23;20158;-88
2024/04/17 13:11:45;;;;;;;12.23;10.97;;;;;;;8.21;81.86;94832.00;6190572;23;20462;-86
2024/04/17 13:14:17;;;;;;;4.77;4.27;;;;;;;8.10;85.40;94889.63;6190953;23;20166;-86
2024/04/17 13:17:03;;;;;;;4.07;2.00;;;;;;;8.18;84.16;94865.69;6190164;23;20162;-86
2024/04/17 13:19:29;;;;;;;1.80;1.70;;;;;;;8.15;84.92;94878.84;6191755;23;20162;-87
2024/04/17 13:21:58;;;;;;;2.90;1.80;;;;;;;8.29;85.26;94886.53;6190608;23;20827;-86
2024/04/17 13:24:40;;;;;;;1.93;1.57;;;;;;;8.39;85.99;94901.69;6190815;23;20221;-89
2024/04/17 13:27:19;;;;;;;2.13;1.93;;;;;;;8.41;86.53;94910.00;6188585;23;20233;-88
2024/04/17 13:29:55;;;;;;;4.70;1.63;;;;;;;8.63;86.78;94926.22;6190895;23;20245;-86
2024/04/17 13:32:27;;;;;;;2.63;1.80;;;;;;;8.85;86.62;94927.84;6189972;23;20162;-87
2024/04/17 13:34:55;;;;;;;1.67;1.57;;;;;;;9.09;84.50;94883.03;6190139;23;20198;-88
2024/04/17 13:37:35;;;;;;;1.73;1.63;;;;;;;9.26;81.87;94830.44;6188583;23;20158;-86
2024/04/17 13:40:03;;;;;;;2.27;2.07;;;;;;;9.27;82.79;94837.16;6189450;23;20174;-85
2024/04/17 13:42:31;;;;;;;1.93;1.60;;;;;;;9.15;81.45;94822.44;6187888;23;20170;-89
2024/04/17 13:45:31;;;;;;;2.20;2.00;;;;;;;9.03;81.31;94819.59;6187648;23;20252;-86
2024/04/17 13:48:10;;;;;;;2.20;2.00;;;;;;;8.88;81.31;94824.00;6182985;23;20240;-88
2024/04/17 13:51:23;;;;;;;;;;;;;;;;;;;;;
2024/04/17 13:54:08;;;;;;;5.00;4.50;;;;;;;8.46;82.74;94845.34;6139826;23;20180;-87
2024/04/17 13:56:45;;;;;;;2.00;1.90;;;;;;;8.49;83.13;94852.63;6188306;23;20154;-87
2024/04/17 14:06:37;;;;;;;2.27;2.07;;;;;;;8.84;80.50;94799.69;6189684;23;20689;-89
2024/04/17 14:09:33;;;;;;;2.40;2.20;;;;;;;8.93;79.32;94770.34;6149031;23;20178;-87
2024/04/17 14:12:21;;;;;;;2.03;1.93;;;;;;;9.06;78.86;94767.06;6156752;23;20230;-89
2024/04/17 14:15:16;;;;;;;2.10;1.90;;;;;;;9.12;77.69;94744.00;6155392;23;20615;-88
2024/04/17 14:17:50;;;;;;;2.00;1.90;;;;;;;8.96;78.09;94742.53;6177279;23;20177;-87
2024/04/17 14:20:23;;;;;;;2.00;1.80;;;;;;;8.93;78.46;94758.31;6188750;23;20681;-88
2024/04/17 14:23:22;;;;;;;;;;;;;;;;;;;;;
2024/04/17 14:26:59;;;;;;;2.50;2.13;;;;;;;8.93;79.48;94778.03;6185799;23;20230;-86
2024/04/17 14:30:10;;;;;;;2.10;1.90;;;;;;;9.03;79.04;94780.31;6184625;23;20178;-87
2024/04/17 14:59:32;;;;;;;3.07;1.90;;;;;;;9.05;77.49;94739.81;5839288;24;20237;-86
2024/04/17 15:01:57;;;;;;;10.37;8.57;;;;;;;9.02;78.94;94782.06;6029682;23;20264;-87
2024/04/17 15:08:14;;;;;;;;;;;;;;;;;;;;;
2024/04/17 15:11:06;;;;;;;1.40;1.30;;;;;;;8.64;78.29;94766.97;5955293;24;20190;-87
2024/04/17 15:20:43;;;;;;;1.70;1.60;;;;;;;8.86;76.20;94731.78;6067485;23;20178;-87
2024/04/17 15:23:29;;;;;;;2.07;1.90;;;;;;;8.99;76.19;94728.53;6158073;23;20564;-87
2024/04/17 15:32:06;;;;;;;2.70;1.80;;;;;;;9.25;75.94;94738.94;6139052;23;20193;-86
2024/04/17 15:35:09;;;;;;;1.90;1.80;;;;;;;9.31;74.36;94702.25;6147378;23;20291;-87
2024/04/17 15:38:00;;;;;;;2.07;1.97;;;;;;;9.34;73.32;94662.53;6157328;23;20258;-88
2024/04/17 15:41:09;;;;;;;1.97;1.83;;;;;;;9.34;74.07;94688.22;6160458;23;20155;-88
2024/04/17 15:44:29;;;;;;;1.90;1.80;;;;;;;9.18;72.61;94635.41;6159252;23;20175;-86
2024/04/17 15:50:22;;;;;;;2.33;1.83;;;;;;;9.16;72.71;94654.56;6161339;23;20178;-88
2024/04/17 15:53:07;;;;;;;1.80;1.70;;;;;;;9.28;72.79;94663.28;6190574;23;20186;-86
2024/04/17 15:56:02;;;;;;;3.93;3.63;;;;;;;9.23;72.78;94669.03;6191402;23;20198;-88
2024/04/17 15:58:40;;;;;;;;;;;;;;;;;;;;;
2024/04/17 16:01:33;;;;;;;2.20;2.03;;;;;;;9.24;72.22;94657.75;6181751;23;20201;-86
2024/04/17 16:04:29;;;;;;;1.90;1.80;;;;;;;9.22;72.06;94654.59;6191604;23;20205;-89
2024/04/17 16:07:37;;;;;;;1.83;1.70;;;;;;;9.24;72.75;94680.84;6181893;23;20529;-86
2024/04/17 16:10:54;;;;;;;;;;;;;;;;;;;;;
2024/04/17 16:13:37;;;;;;;1.83;1.73;;;;;;;9.23;73.67;94712.69;6092322;23;20204;-89
2024/04/17 16:16:16;;;;;;;1.90;1.80;;;;;;;9.29;73.78;94721.38;6191547;23;20233;-87
2024/04/17 16:19:39;;;;;;;3.60;2.20;;;;;;;9.24;73.19;94687.78;6191129;23;20776;-87
2024/04/17 16:22:10;;;;;;;2.20;1.97;;;;;;;9.22;73.90;94713.66;6158782;23;20170;-86
2024/04/17 16:24:47;;;;;;;2.50;2.00;;;;;;;9.25;74.10;94731.25;6189847;23;20197;-89
2024/04/17 16:27:20;;;;;;;2.43;1.73;;;;;;;9.21;74.05;94724.13;6190031;23;20252;-87
2024/04/17 16:29:59;;;;;;;2.13;1.73;;;;;;;9.23;73.53;94720.38;6191430;23;20174;-88
2024/04/17 16:32:38;;;;;;;4.57;3.53;;;;;;;9.26;73.57;94714.84;6191170;23;20237;-86
2024/04/17 16:35:32;;;;;;;2.90;2.60;;;;;;;9.33;72.60;94689.22;6189726;23;20194;-89
2024/04/17 16:38:38;;;;;;;3.40;2.30;;;;;;;9.27;72.24;94671.97;6168677;23;20178;-86
2024/04/17 16:41:15;;;;;;;2.57;2.37;;;;;;;9.25;72.54;94689.34;6189614;23;20249;-86
2024/04/17 16:43:50;;;;;;;2.37;1.90;;;;;;;9.26;71.77;94660.91;6188116;23;20166;-86
2024/04/17 16:47:13;;;;;;;5.53;2.33;;;;;;;9.21;72.37;94670.19;6190901;23;20421;-87
2024/04/17 16:53:49;;;;;;;2.10;1.90;;;;;;;9.29;71.71;94659.75;6184111;23;20220;-87
2024/04/17 16:56:41;;;;;;;3.20;1.87;;;;;;;9.27;72.31;94689.97;6170971;23;20262;-85
2024/04/17 16:59:20;;;;;;;2.50;2.30;;;;;;;9.29;72.70;94723.97;6189113;23;20178;-86
2024/04/17 17:13:20;;;;;;;10.00;8.37;;;;;;;8.21;75.63;94834.56;5986546;23;20234;-87
2024/04/17 17:16:15;;;;;;;19.33;8.90;;;;;;;7.96;74.51;94809.22;6069853;23;20260;-86
2024/04/17 17:35:05;;;;;;;3.63;1.40;;;;;;;7.54;75.97;94838.03;6174371;23;20280;-86
2024/04/17 17:37:48;;;;;;;2.17;1.97;;;;;;;7.51;76.46;94856.31;6157959;23;20529;-87
2024/04/17 17:41:12;;;;;;;2.63;2.10;;;;;;;7.47;77.32;94888.41;6190545;23;20174;-87
2024/04/17 17:44:00;;;;;;;2.67;2.10;;;;;;;7.52;79.25;94931.41;6173710;23;20174;-87
2024/04/17 17:46:58;;;;;;;2.00;1.90;;;;;;;7.60;78.79;94918.53;6189076;23;20174;-88
2024/04/17 17:49:47;;;;;;;2.23;1.93;;;;;;;7.63;78.02;94898.47;6148012;23;20185;-87
2024/04/17 18:03:35;;;;;;;;;;;;;;;;;;;;;
2024/04/17 18:10:32;;;;;;;1.70;1.53;;;;;;;7.03;78.67;94936.91;6209841;22;20175;-89
2024/04/17 18:13:33;;;;;;;;;;;;;;;;;;;;;
2024/04/17 18:26:08;;;;;;;2.00;1.90;;;;;;;7.04;78.96;94935.16;6157181;23;20194;-86
2024/04/17 18:39:11;;;;;;;2.67;2.47;;;;;;;7.15;79.35;94961.13;6048351;23;20179;-88
2024/04/17 18:44:49;;;;;;;2.50;2.03;;;;;;;7.18;79.46;94976.16;6232454;22;20196;-87
2024/04/17 18:47:54;;;;;;;;;;;;;;;;;;;;;
2024/04/17 18:50:47;;;;;;;2.40;2.20;;;;;;;7.01;78.68;94967.00;6246617;23;20211;-88
2024/04/17 18:53:45;;;;;;;;;;;;;;;;;;;;;
2024/04/17 18:56:51;;;;;;;2.43;2.00;;;;;;;6.79;79.30;94976.22;6247045;23;20680;-86
2024/04/17 19:02:54;;;;;;;2.63;2.27;;;;;;;6.81;80.03;95012.69;6244916;23;20177;-89
2024/04/17 19:05:42;;;;;;;3.20;2.90;;;;;;;6.90;79.94;95026.25;6249369;23;20301;-86
2024/04/17 19:08:40;;;;;;;4.00;2.40;;;;;;;6.94;80.12;95014.69;6248738;23;20196;-86
2024/04/17 19:11:26;;;;;;;2.30;2.10;;;;;;;6.88;80.10;95013.63;6096200;23;20176;-87
2024/04/17 19:14:41;;;;;;;1.80;1.70;;;;;;;6.84;80.36;95019.22;6113895;23;20293;-88
2024/04/17 19:17:37;;;;;;;1.80;1.70;;;;;;;6.81;80.63;95019.56;6249400;23;20168;-86
2024/04/17 19:20:16;;;;;;;2.30;1.80;;;;;;;6.89;80.05;95022.09;6249399;22;20199;-85
2024/04/17 19:22:57;;;;;;;1.80;1.70;;;;;;;6.78;80.69;95018.13;6249195;23;20188;-86
2024/04/17 19:28:42;;;;;;;2.57;1.70;;;;;;;6.77;80.81;95031.06;6218553;23;20200;-85
2024/04/17 19:31:20;;;;;;;2.00;1.90;;;;;;;6.59;81.43;95042.34;6197503;23;20196;-85
2024/04/17 19:34:31;;;;;;;2.00;1.90;;;;;;;6.53;82.85;95070.34;6221406;23;20185;-88
2024/04/17 19:42:50;;;;;;;;;;;;;;;;;;;;;
2024/04/17 19:45:22;;;;;;;2.60;2.00;;;;;;;6.79;81.57;95055.53;6187969;23;20233;-87
2024/04/17 19:48:10;;;;;;;2.33;1.87;;;;;;;6.78;81.22;95053.94;6188310;23;20201;-87
2024/04/17 19:51:06;;;;;;;1.87;1.63;;;;;;;6.57;81.73;95041.69;6189599;23;20293;-86